sensor_id;sensor_type;location;lat;lon;timestamp;temperature;humidity
22769;DHT22;13001;51.968;5.918;2023-02-22T00:00:43;8.30;99.90
22769;DHT22;13001;51.968;5.918;2023-02-22T00:03:25;8.30;99.90
22769;DHT22;13001;51.968;5.918;2023-02-22T00:05:57;8.30;99.90
22769;DHT22;13001;51.968;5.918;2023-02-22T00:08:28;8.30;99.90
22769;DHT22;13001;51.968;5.918;2023-02-22T00:11:00;8.30;99.90
22769;DHT22;13001;51.968;5.918;2023-02-22T00:13:29;8.30;99.90
22769;DHT22;13001;51.968;5.918;2023-02-22T00:15:57;8.30;99.90
22769;DHT22;13001;51.968;5.918;2023-02-22T00:18:27;8.30;99.90
22769;DHT22;13001;51.968;5.918;2023-02-22T00:20:59;8.40;99.90
22769;DHT22;13001;51.968;5.918;2023-02-22T00:23:29;8.40;99.90
22769;DHT22;13001;51.968;5.918;2023-02-22T00:25:58;8.30;99.90
22769;DHT22;13001;51.968;5.918;2023-02-22T00:28:26;8.40;99.90
22769;DHT22;13001;51.968;5.918;2023-02-22T00:30:56;8.30;99.90
22769;DHT22;13001;51.968;5.918;2023-02-22T00:33:25;8.30;99.90
22769;DHT22;13001;51.968;5.918;2023-02-22T00:35:52;8.20;99.90
22769;DHT22;13001;51.968;5.918;2023-02-22T00:38:20;8.20;99.90
22769;DHT22;13001;51.968;5.918;2023-02-22T00:40:47;8.20;99.90
22769;DHT22;13001;51.968;5.918;2023-02-22T00:43:15;8.20;99.90
22769;DHT22;13001;51.968;5.918;2023-02-22T00:45:42;8.20;99.90
22769;DHT22;13001;51.968;5.918;2023-02-22T00:48:10;8.20;99.90
22769;DHT22;13001;51.968;5.918;2023-02-22T00:50:38;8.20;99.90
22769;DHT22;13001;51.968;5.918;2023-02-22T00:53:06;8.20;99.90
22769;DHT22;13001;51.968;5.918;2023-02-22T00:55:37;8.20;99.90
22769;DHT22;13001;51.968;5.918;2023-02-22T00:58:06;8.20;99.90
22769;DHT22;13001;51.968;5.918;2023-02-22T01:00:40;8.20;99.90
22769;DHT22;13001;51.968;5.918;2023-02-22T01:03:05;8.20;99.90
22769;DHT22;13001;51.968;5.918;2023-02-22T01:05:34;8.20;99.90
22769;DHT22;13001;51.968;5.918;2023-02-22T01:08:03;8.20;99.90
22769;DHT22;13001;51.968;5.918;2023-02-22T01:10:32;8.10;99.90
22769;DHT22;13001;51.968;5.918;2023-02-22T01:13:01;8.10;99.90
22769;DHT22;13001;51.968;5.918;2023-02-22T01:15:30;8.10;99.90
22769;DHT22;13001;51.968;5.918;2023-02-22T01:17:58;8.10;99.90
22769;DHT22;13001;51.968;5.918;2023-02-22T01:20:27;8.10;99.90
22769;DHT22;13001;51.968;5.918;2023-02-22T01:22:57;8.10;99.90
22769;DHT22;13001;51.968;5.918;2023-02-22T01:25:27;8.10;99.90
22769;DHT22;13001;51.968;5.918;2023-02-22T01:27:56;8.10;99.90
22769;DHT22;13001;51.968;5.918;2023-02-22T01:30:27;8.10;99.90
22769;DHT22;13001;51.968;5.918;2023-02-22T01:32:55;8.00;99.90
22769;DHT22;13001;51.968;5.918;2023-02-22T01:35:26;8.00;99.90
22769;DHT22;13001;51.968;5.918;2023-02-22T01:37:55;8.00;99.90
22769;DHT22;13001;51.968;5.918;2023-02-22T01:40:31;8.00;99.90
22769;DHT22;13001;51.968;5.918;2023-02-22T01:42:57;8.00;99.90
22769;DHT22;13001;51.968;5.918;2023-02-22T01:48:06;8.00;99.90
22769;DHT22;13001;51.968;5.918;2023-02-22T01:50:36;8.00;99.90
22769;DHT22;13001;51.968;5.918;2023-02-22T01:53:05;8.00;99.90
22769;DHT22;13001;51.968;5.918;2023-02-22T01:55:34;8.00;99.90
22769;DHT22;13001;51.968;5.918;2023-02-22T01:58:03;8.00;99.90
22769;DHT22;13001;51.968;5.918;2023-02-22T02:00:32;8.00;99.90
22769;DHT22;13001;51.968;5.918;2023-02-22T02:03:03;8.00;99.90
22769;DHT22;13001;51.968;5.918;2023-02-22T02:05:33;8.00;99.90
22769;DHT22;13001;51.968;5.918;2023-02-22T02:08:18;7.90;99.90
22769;DHT22;13001;51.968;5.918;2023-02-22T02:10:46;7.90;99.90
22769;DHT22;13001;51.968;5.918;2023-02-22T02:13:14;7.80;99.90
22769;DHT22;13001;51.968;5.918;2023-02-22T02:15:41;7.80;99.90
22769;DHT22;13001;51.968;5.918;2023-02-22T02:18:10;7.80;99.90
22769;DHT22;13001;51.968;5.918;2023-02-22T02:21:00;7.80;99.90
22769;DHT22;13001;51.968;5.918;2023-02-22T02:26:34;7.80;99.90
22769;DHT22;13001;51.968;5.918;2023-02-22T02:32:19;7.80;99.90
22769;DHT22;13001;51.968;5.918;2023-02-22T02:37:56;7.60;99.90
22769;DHT22;13001;51.968;5.918;2023-02-22T02:43:25;7.50;99.90
22769;DHT22;13001;51.968;5.918;2023-02-22T02:48:11;7.50;99.90
22769;DHT22;13001;51.968;5.918;2023-02-22T02:50:47;7.50;99.90
22769;DHT22;13001;51.968;5.918;2023-02-22T02:53:13;7.50;99.90
22769;DHT22;13001;51.968;5.918;2023-02-22T02:55:42;7.50;99.90
22769;DHT22;13001;51.968;5.918;2023-02-22T02:58:16;7.50;99.90
22769;DHT22;13001;51.968;5.918;2023-02-22T03:00:41;7.50;99.90
22769;DHT22;13001;51.968;5.918;2023-02-22T03:03:19;7.50;99.90
22769;DHT22;13001;51.968;5.918;2023-02-22T03:06:07;7.50;99.90
22769;DHT22;13001;51.968;5.918;2023-02-22T03:08:38;7.60;99.90
22769;DHT22;13001;51.968;5.918;2023-02-22T03:11:12;7.60;99.90
22769;DHT22;13001;51.968;5.918;2023-02-22T03:13:42;7.60;99.90
22769;DHT22;13001;51.968;5.918;2023-02-22T03:18:58;7.60;99.90
22769;DHT22;13001;51.968;5.918;2023-02-22T03:26:40;7.50;99.90
22769;DHT22;13001;51.968;5.918;2023-02-22T03:29:09;7.50;99.90
22769;DHT22;13001;51.968;5.918;2023-02-22T03:31:40;7.50;99.90
22769;DHT22;13001;51.968;5.918;2023-02-22T03:34:17;7.50;99.90
22769;DHT22;13001;51.968;5.918;2023-02-22T03:36:57;7.50;99.90
22769;DHT22;13001;51.968;5.918;2023-02-22T03:39:23;7.50;99.90
22769;DHT22;13001;51.968;5.918;2023-02-22T03:41:54;7.50;99.90
22769;DHT22;13001;51.968;5.918;2023-02-22T03:44:24;7.50;99.90
22769;DHT22;13001;51.968;5.918;2023-02-22T03:46:54;7.50;99.90
22769;DHT22;13001;51.968;5.918;2023-02-22T03:49:36;7.50;99.90
22769;DHT22;13001;51.968;5.918;2023-02-22T03:52:06;7.40;99.90
22769;DHT22;13001;51.968;5.918;2023-02-22T03:54:34;7.40;99.90
22769;DHT22;13001;51.968;5.918;2023-02-22T03:57:16;7.30;99.90
22769;DHT22;13001;51.968;5.918;2023-02-22T03:59:45;7.30;99.90
22769;DHT22;13001;51.968;5.918;2023-02-22T04:02:13;7.30;99.90
22769;DHT22;13001;51.968;5.918;2023-02-22T04:04:42;7.30;99.90
22769;DHT22;13001;51.968;5.918;2023-02-22T04:07:09;7.30;99.90
22769;DHT22;13001;51.968;5.918;2023-02-22T04:09:38;7.20;99.90
22769;DHT22;13001;51.968;5.918;2023-02-22T04:12:06;7.20;99.90
22769;DHT22;13001;51.968;5.918;2023-02-22T04:14:34;7.20;99.90
22769;DHT22;13001;51.968;5.918;2023-02-22T04:17:01;7.20;99.90
22769;DHT22;13001;51.968;5.918;2023-02-22T04:19:29;7.20;99.90
22769;DHT22;13001;51.968;5.918;2023-02-22T04:21:56;7.20;99.90
22769;DHT22;13001;51.968;5.918;2023-02-22T04:24:24;7.20;99.90
22769;DHT22;13001;51.968;5.918;2023-02-22T04:26:51;7.20;99.90
22769;DHT22;13001;51.968;5.918;2023-02-22T04:29:20;7.20;99.90
22769;DHT22;13001;51.968;5.918;2023-02-22T04:31:48;7.10;99.90
22769;DHT22;13001;51.968;5.918;2023-02-22T04:34:15;7.10;99.90
22769;DHT22;13001;51.968;5.918;2023-02-22T04:36:44;7.10;99.90
22769;DHT22;13001;51.968;5.918;2023-02-22T04:39:12;7.10;99.90
22769;DHT22;13001;51.968;5.918;2023-02-22T04:41:41;7.10;99.90
22769;DHT22;13001;51.968;5.918;2023-02-22T04:44:08;7.20;99.90
22769;DHT22;13001;51.968;5.918;2023-02-22T04:46:36;7.10;99.90
22769;DHT22;13001;51.968;5.918;2023-02-22T04:49:03;7.10;99.90
22769;DHT22;13001;51.968;5.918;2023-02-22T04:51:31;7.00;99.90
22769;DHT22;13001;51.968;5.918;2023-02-22T04:53:59;6.90;99.90
22769;DHT22;13001;51.968;5.918;2023-02-22T04:56:26;6.90;99.90
22769;DHT22;13001;51.968;5.918;2023-02-22T04:58:55;6.90;99.90
22769;DHT22;13001;51.968;5.918;2023-02-22T05:01:23;6.90;99.90
22769;DHT22;13001;51.968;5.918;2023-02-22T05:03:50;6.90;99.90
22769;DHT22;13001;51.968;5.918;2023-02-22T05:06:18;6.80;99.90
22769;DHT22;13001;51.968;5.918;2023-02-22T05:08:45;6.80;99.90
22769;DHT22;13001;51.968;5.918;2023-02-22T05:11:15;6.80;99.90
22769;DHT22;13001;51.968;5.918;2023-02-22T05:13:42;6.70;99.90
22769;DHT22;13001;51.968;5.918;2023-02-22T05:16:09;6.70;99.90
22769;DHT22;13001;51.968;5.918;2023-02-22T05:18:37;6.70;99.90
22769;DHT22;13001;51.968;5.918;2023-02-22T05:21:05;6.70;99.90
22769;DHT22;13001;51.968;5.918;2023-02-22T05:23:33;6.60;99.90
22769;DHT22;13001;51.968;5.918;2023-02-22T05:26:00;6.60;99.90
22769;DHT22;13001;51.968;5.918;2023-02-22T05:28:28;6.60;99.90
22769;DHT22;13001;51.968;5.918;2023-02-22T05:30:55;6.50;99.90
22769;DHT22;13001;51.968;5.918;2023-02-22T05:33:23;6.50;99.90
22769;DHT22;13001;51.968;5.918;2023-02-22T05:35:50;6.60;99.90
22769;DHT22;13001;51.968;5.918;2023-02-22T05:38:18;6.50;99.90
22769;DHT22;13001;51.968;5.918;2023-02-22T05:40:45;6.50;99.90
22769;DHT22;13001;51.968;5.918;2023-02-22T05:43:13;6.50;99.90
22769;DHT22;13001;51.968;5.918;2023-02-22T05:45:41;6.50;99.90
22769;DHT22;13001;51.968;5.918;2023-02-22T05:48:08;6.50;99.90
22769;DHT22;13001;51.968;5.918;2023-02-22T05:50:36;6.50;99.90
22769;DHT22;13001;51.968;5.918;2023-02-22T05:53:04;6.50;99.90
22769;DHT22;13001;51.968;5.918;2023-02-22T05:55:31;6.50;99.90
22769;DHT22;13001;51.968;5.918;2023-02-22T05:57:59;6.50;99.90
22769;DHT22;13001;51.968;5.918;2023-02-22T06:00:29;6.50;99.90
22769;DHT22;13001;51.968;5.918;2023-02-22T06:03:05;6.50;99.90
22769;DHT22;13001;51.968;5.918;2023-02-22T06:05:34;6.50;99.90
22769;DHT22;13001;51.968;5.918;2023-02-22T06:08:03;6.50;99.90
22769;DHT22;13001;51.968;5.918;2023-02-22T06:10:32;6.50;99.90
22769;DHT22;13001;51.968;5.918;2023-02-22T06:13:00;6.50;99.90
22769;DHT22;13001;51.968;5.918;2023-02-22T06:15:28;6.50;99.90
22769;DHT22;13001;51.968;5.918;2023-02-22T06:17:57;6.50;99.90
22769;DHT22;13001;51.968;5.918;2023-02-22T06:20:27;6.50;99.90
22769;DHT22;13001;51.968;5.918;2023-02-22T06:22:56;6.50;99.90
22769;DHT22;13001;51.968;5.918;2023-02-22T06:25:27;6.40;99.90
22769;DHT22;13001;51.968;5.918;2023-02-22T06:27:57;6.40;99.90
22769;DHT22;13001;51.968;5.918;2023-02-22T06:30:26;6.30;99.90
22769;DHT22;13001;51.968;5.918;2023-02-22T06:32:54;6.30;99.90
22769;DHT22;13001;51.968;5.918;2023-02-22T06:35:22;6.30;99.90
22769;DHT22;13001;51.968;5.918;2023-02-22T06:37:50;6.30;99.90
22769;DHT22;13001;51.968;5.918;2023-02-22T06:40:17;6.30;99.90
22769;DHT22;13001;51.968;5.918;2023-02-22T06:42:47;6.30;99.90
22769;DHT22;13001;51.968;5.918;2023-02-22T06:45:16;6.30;99.90
22769;DHT22;13001;51.968;5.918;2023-02-22T06:47:44;6.30;99.90
22769;DHT22;13001;51.968;5.918;2023-02-22T06:50:23;6.30;99.90
22769;DHT22;13001;51.968;5.918;2023-02-22T06:52:51;6.30;99.90
22769;DHT22;13001;51.968;5.918;2023-02-22T06:55:21;6.40;99.90
22769;DHT22;13001;51.968;5.918;2023-02-22T06:57:50;6.30;99.90
22769;DHT22;13001;51.968;5.918;2023-02-22T07:00:19;6.30;99.90
22769;DHT22;13001;51.968;5.918;2023-02-22T07:02:47;6.30;99.90
22769;DHT22;13001;51.968;5.918;2023-02-22T07:05:21;6.30;99.90
22769;DHT22;13001;51.968;5.918;2023-02-22T07:07:45;6.40;99.90
22769;DHT22;13001;51.968;5.918;2023-02-22T07:10:24;6.40;99.90
22769;DHT22;13001;51.968;5.918;2023-02-22T07:12:52;6.40;99.90
22769;DHT22;13001;51.968;5.918;2023-02-22T07:15:24;6.50;99.90
22769;DHT22;13001;51.968;5.918;2023-02-22T07:17:53;6.50;99.90
22769;DHT22;13001;51.968;5.918;2023-02-22T07:20:21;6.50;99.90
22769;DHT22;13001;51.968;5.918;2023-02-22T07:22:49;6.50;99.90
22769;DHT22;13001;51.968;5.918;2023-02-22T07:25:17;6.50;99.90
22769;DHT22;13001;51.968;5.918;2023-02-22T07:27:47;6.60;99.90
22769;DHT22;13001;51.968;5.918;2023-02-22T07:30:17;6.60;99.90
22769;DHT22;13001;51.968;5.918;2023-02-22T07:32:46;6.60;99.90
22769;DHT22;13001;51.968;5.918;2023-02-22T07:35:21;6.60;99.90
22769;DHT22;13001;51.968;5.918;2023-02-22T07:37:48;6.60;99.90
22769;DHT22;13001;51.968;5.918;2023-02-22T07:40:17;6.60;99.90
22769;DHT22;13001;51.968;5.918;2023-02-22T07:42:56;6.70;99.90
22769;DHT22;13001;51.968;5.918;2023-02-22T07:45:31;6.70;99.90
22769;DHT22;13001;51.968;5.918;2023-02-22T07:47:55;6.70;99.90
22769;DHT22;13001;51.968;5.918;2023-02-22T07:50:24;6.80;99.90
22769;DHT22;13001;51.968;5.918;2023-02-22T07:52:54;6.80;99.90
22769;DHT22;13001;51.968;5.918;2023-02-22T07:55:25;6.80;99.90
22769;DHT22;13001;51.968;5.918;2023-02-22T07:57:55;6.80;99.90
22769;DHT22;13001;51.968;5.918;2023-02-22T08:00:33;6.80;99.90
22769;DHT22;13001;51.968;5.918;2023-02-22T08:02:59;6.80;99.90
22769;DHT22;13001;51.968;5.918;2023-02-22T08:05:29;6.80;99.90
22769;DHT22;13001;51.968;5.918;2023-02-22T08:07:57;6.90;99.90
22769;DHT22;13001;51.968;5.918;2023-02-22T08:10:25;6.90;99.90
22769;DHT22;13001;51.968;5.918;2023-02-22T08:12:54;7.00;99.90
22769;DHT22;13001;51.968;5.918;2023-02-22T08:15:24;7.00;99.90
22769;DHT22;13001;51.968;5.918;2023-02-22T08:17:54;7.10;99.90
22769;DHT22;13001;51.968;5.918;2023-02-22T08:20:23;7.10;99.90
22769;DHT22;13001;51.968;5.918;2023-02-22T08:22:51;7.20;99.90
22769;DHT22;13001;51.968;5.918;2023-02-22T08:25:20;7.20;99.90
22769;DHT22;13001;51.968;5.918;2023-02-22T08:27:48;7.20;99.90
22769;DHT22;13001;51.968;5.918;2023-02-22T08:30:21;7.30;99.90
22769;DHT22;13001;51.968;5.918;2023-02-22T08:32:50;7.30;99.90
22769;DHT22;13001;51.968;5.918;2023-02-22T08:35:19;7.30;99.90
22769;DHT22;13001;51.968;5.918;2023-02-22T08:37:49;7.40;99.90
22769;DHT22;13001;51.968;5.918;2023-02-22T08:40:24;7.40;99.90
22769;DHT22;13001;51.968;5.918;2023-02-22T08:42:48;7.50;99.90
22769;DHT22;13001;51.968;5.918;2023-02-22T08:45:16;7.50;99.90
22769;DHT22;13001;51.968;5.918;2023-02-22T08:48:03;7.60;99.90
22769;DHT22;13001;51.968;5.918;2023-02-22T08:50:32;7.70;99.90
22769;DHT22;13001;51.968;5.918;2023-02-22T08:53:02;7.80;99.90
22769;DHT22;13001;51.968;5.918;2023-02-22T08:55:33;7.90;99.90
22769;DHT22;13001;51.968;5.918;2023-02-22T08:58:02;7.90;99.90
22769;DHT22;13001;51.968;5.918;2023-02-22T09:00:32;8.00;99.90
22769;DHT22;13001;51.968;5.918;2023-02-22T09:03:01;8.00;99.90
22769;DHT22;13001;51.968;5.918;2023-02-22T09:05:29;8.00;99.90
22769;DHT22;13001;51.968;5.918;2023-02-22T09:07:57;8.00;99.90
22769;DHT22;13001;51.968;5.918;2023-02-22T09:10:28;8.10;99.90
22769;DHT22;13001;51.968;5.918;2023-02-22T09:12:56;8.10;99.90
22769;DHT22;13001;51.968;5.918;2023-02-22T09:15:26;8.20;99.90
22769;DHT22;13001;51.968;5.918;2023-02-22T09:17:54;8.20;99.90
22769;DHT22;13001;51.968;5.918;2023-02-22T09:20:23;8.30;99.90
22769;DHT22;13001;51.968;5.918;2023-02-22T09:22:51;8.30;99.90
22769;DHT22;13001;51.968;5.918;2023-02-22T09:25:20;8.40;99.90
22769;DHT22;13001;51.968;5.918;2023-02-22T09:27:52;8.50;99.90
22769;DHT22;13001;51.968;5.918;2023-02-22T09:30:26;8.50;99.90
22769;DHT22;13001;51.968;5.918;2023-02-22T09:32:58;8.60;99.90
22769;DHT22;13001;51.968;5.918;2023-02-22T09:35:26;8.60;99.90
22769;DHT22;13001;51.968;5.918;2023-02-22T09:37:55;8.70;99.90
22769;DHT22;13001;51.968;5.918;2023-02-22T09:40:25;8.90;99.90
22769;DHT22;13001;51.968;5.918;2023-02-22T09:48:35;9.30;99.90
22769;DHT22;13001;51.968;5.918;2023-02-22T09:51:02;9.50;99.90
22769;DHT22;13001;51.968;5.918;2023-02-22T09:53:34;9.60;99.90
22769;DHT22;13001;51.968;5.918;2023-02-22T09:56:03;9.70;99.90
22769;DHT22;13001;51.968;5.918;2023-02-22T09:58:37;9.90;99.90
22769;DHT22;13001;51.968;5.918;2023-02-22T10:03:59;9.90;99.90
22769;DHT22;13001;51.968;5.918;2023-02-22T10:06:26;10.10;99.90
22769;DHT22;13001;51.968;5.918;2023-02-22T10:08:57;10.30;99.90
22769;DHT22;13001;51.968;5.918;2023-02-22T10:11:51;10.50;99.90
22769;DHT22;13001;51.968;5.918;2023-02-22T10:17:19;10.70;99.90
22769;DHT22;13001;51.968;5.918;2023-02-22T10:19:57;10.90;99.90
22769;DHT22;13001;51.968;5.918;2023-02-22T10:22:34;11.00;99.90
22769;DHT22;13001;51.968;5.918;2023-02-22T10:25:04;11.20;99.90
22769;DHT22;13001;51.968;5.918;2023-02-22T10:27:39;11.50;99.90
22769;DHT22;13001;51.968;5.918;2023-02-22T10:35:35;12.20;99.90
22769;DHT22;13001;51.968;5.918;2023-02-22T10:38:19;12.30;99.90
22769;DHT22;13001;51.968;5.918;2023-02-22T10:43:31;12.50;99.90
22769;DHT22;13001;51.968;5.918;2023-02-22T10:46:01;12.60;99.90
22769;DHT22;13001;51.968;5.918;2023-02-22T10:48:32;12.60;99.90
22769;DHT22;13001;51.968;5.918;2023-02-22T10:51:03;12.50;99.90
22769;DHT22;13001;51.968;5.918;2023-02-22T10:53:31;12.70;99.90
22769;DHT22;13001;51.968;5.918;2023-02-22T10:58:51;12.80;99.90
22769;DHT22;13001;51.968;5.918;2023-02-22T11:04:01;13.00;99.90
22769;DHT22;13001;51.968;5.918;2023-02-22T11:06:30;13.20;99.90
22769;DHT22;13001;51.968;5.918;2023-02-22T11:09:14;13.40;99.90
22769;DHT22;13001;51.968;5.918;2023-02-22T11:11:39;13.50;99.90
22769;DHT22;13001;51.968;5.918;2023-02-22T11:14:08;13.50;99.90
22769;DHT22;13001;51.968;5.918;2023-02-22T11:16:46;13.40;99.90
22769;DHT22;13001;51.968;5.918;2023-02-22T11:21:46;13.60;99.90
22769;DHT22;13001;51.968;5.918;2023-02-22T11:24:19;13.90;99.90
22769;DHT22;13001;51.968;5.918;2023-02-22T11:26:57;14.20;99.90
22769;DHT22;13001;51.968;5.918;2023-02-22T11:29:25;14.40;99.90
22769;DHT22;13001;51.968;5.918;2023-02-22T11:31:54;14.60;99.90
22769;DHT22;13001;51.968;5.918;2023-02-22T11:34:37;14.60;99.90
22769;DHT22;13001;51.968;5.918;2023-02-22T11:37:31;14.50;99.90
22769;DHT22;13001;51.968;5.918;2023-02-22T11:40:11;14.60;99.90
22769;DHT22;13001;51.968;5.918;2023-02-22T11:42:37;14.60;99.90
22769;DHT22;13001;51.968;5.918;2023-02-22T11:48:02;14.70;99.90
22769;DHT22;13001;51.968;5.918;2023-02-22T11:56:22;14.30;99.90
22769;DHT22;13001;51.968;5.918;2023-02-22T11:58:57;14.20;99.90
22769;DHT22;13001;51.968;5.918;2023-02-22T12:01:38;14.10;99.90
22769;DHT22;13001;51.968;5.918;2023-02-22T12:12:46;13.80;99.80
22769;DHT22;13001;51.968;5.918;2023-02-22T12:15:30;13.90;98.70
22769;DHT22;13001;51.968;5.918;2023-02-22T12:20:59;14.20;97.30
22769;DHT22;13001;51.968;5.918;2023-02-22T12:23:50;14.40;97.40
22769;DHT22;13001;51.968;5.918;2023-02-22T12:26:32;14.70;97.40
22769;DHT22;13001;51.968;5.918;2023-02-22T12:29:03;15.00;97.20
22769;DHT22;13001;51.968;5.918;2023-02-22T12:31:35;15.20;96.80
22769;DHT22;13001;51.968;5.918;2023-02-22T12:34:27;15.20;96.30
22769;DHT22;13001;51.968;5.918;2023-02-22T12:37:15;15.10;96.00
22769;DHT22;13001;51.968;5.918;2023-02-22T12:44:37;14.90;96.40
22769;DHT22;13001;51.968;5.918;2023-02-22T12:47:06;14.90;96.20
22769;DHT22;13001;51.968;5.918;2023-02-22T12:49:57;14.80;96.00
22769;DHT22;13001;51.968;5.918;2023-02-22T12:55:29;14.20;95.30
22769;DHT22;13001;51.968;5.918;2023-02-22T12:58:17;14.10;95.40
22769;DHT22;13001;51.968;5.918;2023-02-22T13:01:05;14.10;95.30
22769;DHT22;13001;51.968;5.918;2023-02-22T13:03:42;14.10;95.20
22769;DHT22;13001;51.968;5.918;2023-02-22T13:09:07;14.40;94.70
22769;DHT22;13001;51.968;5.918;2023-02-22T13:11:49;14.50;94.60
22769;DHT22;13001;51.968;5.918;2023-02-22T13:17:18;14.40;94.70
22769;DHT22;13001;51.968;5.918;2023-02-22T13:19:58;14.40;94.70
22769;DHT22;13001;51.968;5.918;2023-02-22T13:25:14;14.10;95.10
22769;DHT22;13001;51.968;5.918;2023-02-22T13:27:59;14.00;95.30
22769;DHT22;13001;51.968;5.918;2023-02-22T13:30:39;14.00;95.60
22769;DHT22;13001;51.968;5.918;2023-02-22T13:41:26;13.60;96.10
22769;DHT22;13001;51.968;5.918;2023-02-22T13:47:08;13.40;96.40
22769;DHT22;13001;51.968;5.918;2023-02-22T13:50:00;13.40;96.00
22769;DHT22;13001;51.968;5.918;2023-02-22T13:52:26;13.50;95.30
22769;DHT22;13001;51.968;5.918;2023-02-22T13:55:00;13.60;94.90
22769;DHT22;13001;51.968;5.918;2023-02-22T13:57:45;13.70;94.70
22769;DHT22;13001;51.968;5.918;2023-02-22T14:00:20;13.80;94.10
22769;DHT22;13001;51.968;5.918;2023-02-22T14:10:54;13.80;92.70
22769;DHT22;13001;51.968;5.918;2023-02-22T14:13:30;13.80;92.80
22769;DHT22;13001;51.968;5.918;2023-02-22T14:21:07;13.90;93.70
22769;DHT22;13001;51.968;5.918;2023-02-22T14:23:48;13.80;93.90
22769;DHT22;13001;51.968;5.918;2023-02-22T14:26:30;13.90;93.90
22769;DHT22;13001;51.968;5.918;2023-02-22T14:34:17;13.70;93.90
22769;DHT22;13001;51.968;5.918;2023-02-22T14:37:03;13.70;94.40
22769;DHT22;13001;51.968;5.918;2023-02-22T14:39:36;13.60;94.90
22769;DHT22;13001;51.968;5.918;2023-02-22T14:42:16;13.50;95.20
22769;DHT22;13001;51.968;5.918;2023-02-22T14:44:58;13.50;95.70
22769;DHT22;13001;51.968;5.918;2023-02-22T14:47:49;13.50;95.20
22769;DHT22;13001;51.968;5.918;2023-02-22T14:50:24;13.50;95.50
22769;DHT22;13001;51.968;5.918;2023-02-22T14:53:03;13.50;95.80
22769;DHT22;13001;51.968;5.918;2023-02-22T14:55:36;13.50;96.00
22769;DHT22;13001;51.968;5.918;2023-02-22T14:58:13;13.50;96.00
22769;DHT22;13001;51.968;5.918;2023-02-22T15:00:41;13.40;96.10
22769;DHT22;13001;51.968;5.918;2023-02-22T15:03:24;13.40;96.30
22769;DHT22;13001;51.968;5.918;2023-02-22T15:05:47;13.50;96.40
22769;DHT22;13001;51.968;5.918;2023-02-22T15:08:18;13.40;96.30
22769;DHT22;13001;51.968;5.918;2023-02-22T15:10:50;13.40;96.30
22769;DHT22;13001;51.968;5.918;2023-02-22T15:13:27;13.30;96.30
22769;DHT22;13001;51.968;5.918;2023-02-22T15:16:00;13.30;96.10
22769;DHT22;13001;51.968;5.918;2023-02-22T15:18:40;13.20;96.20
22769;DHT22;13001;51.968;5.918;2023-02-22T15:21:13;13.30;96.40
22769;DHT22;13001;51.968;5.918;2023-02-22T15:23:53;13.30;96.40
22769;DHT22;13001;51.968;5.918;2023-02-22T15:26:39;13.30;96.70
22769;DHT22;13001;51.968;5.918;2023-02-22T15:29:14;13.30;96.70
22769;DHT22;13001;51.968;5.918;2023-02-22T15:31:38;13.30;96.80
22769;DHT22;13001;51.968;5.918;2023-02-22T15:36:47;13.30;96.90
22769;DHT22;13001;51.968;5.918;2023-02-22T15:39:27;13.20;97.10
22769;DHT22;13001;51.968;5.918;2023-02-22T15:44:34;13.10;97.30
22769;DHT22;13001;51.968;5.918;2023-02-22T15:47:03;13.00;97.40
22769;DHT22;13001;51.968;5.918;2023-02-22T15:49:30;13.00;97.60
22769;DHT22;13001;51.968;5.918;2023-02-22T15:52:03;13.00;97.80
22769;DHT22;13001;51.968;5.918;2023-02-22T15:54:41;12.90;97.80
22769;DHT22;13001;51.968;5.918;2023-02-22T15:57:14;12.90;97.90
22769;DHT22;13001;51.968;5.918;2023-02-22T15:59:46;12.90;98.00
22769;DHT22;13001;51.968;5.918;2023-02-22T16:02:34;12.80;98.20
22769;DHT22;13001;51.968;5.918;2023-02-22T16:05:04;12.80;98.30
22769;DHT22;13001;51.968;5.918;2023-02-22T16:07:34;12.80;98.40
22769;DHT22;13001;51.968;5.918;2023-02-22T16:10:02;12.70;98.50
22769;DHT22;13001;51.968;5.918;2023-02-22T16:12:31;12.70;98.50
22769;DHT22;13001;51.968;5.918;2023-02-22T16:15:01;12.70;98.60
22769;DHT22;13001;51.968;5.918;2023-02-22T16:17:36;12.60;98.70
22769;DHT22;13001;51.968;5.918;2023-02-22T16:22:44;12.50;98.70
22769;DHT22;13001;51.968;5.918;2023-02-22T16:27:58;12.50;98.80
22769;DHT22;13001;51.968;5.918;2023-02-22T16:30:32;12.50;98.90
22769;DHT22;13001;51.968;5.918;2023-02-22T16:33:04;12.50;98.90
22769;DHT22;13001;51.968;5.918;2023-02-22T16:35:34;12.40;98.90
22769;DHT22;13001;51.968;5.918;2023-02-22T16:38:04;12.40;98.90
22769;DHT22;13001;51.968;5.918;2023-02-22T16:40:40;12.40;99.00
22769;DHT22;13001;51.968;5.918;2023-02-22T16:43:16;12.30;99.10
22769;DHT22;13001;51.968;5.918;2023-02-22T16:45:43;12.30;99.20
22769;DHT22;13001;51.968;5.918;2023-02-22T16:50:47;12.20;99.30
22769;DHT22;13001;51.968;5.918;2023-02-22T16:53:16;12.20;99.40
22769;DHT22;13001;51.968;5.918;2023-02-22T16:55:46;12.20;99.50
22769;DHT22;13001;51.968;5.918;2023-02-22T16:58:16;12.20;99.60
22769;DHT22;13001;51.968;5.918;2023-02-22T17:00:45;12.10;99.70
22769;DHT22;13001;51.968;5.918;2023-02-22T17:03:17;12.10;99.80
22769;DHT22;13001;51.968;5.918;2023-02-22T17:05:45;12.10;99.80
22769;DHT22;13001;51.968;5.918;2023-02-22T17:08:12;12.00;99.80
22769;DHT22;13001;51.968;5.918;2023-02-22T17:10:42;12.00;99.90
22769;DHT22;13001;51.968;5.918;2023-02-22T17:13:10;12.00;99.90
22769;DHT22;13001;51.968;5.918;2023-02-22T17:15:38;11.90;99.90
22769;DHT22;13001;51.968;5.918;2023-02-22T17:18:14;11.90;99.90
22769;DHT22;13001;51.968;5.918;2023-02-22T17:20:44;11.80;99.90
22769;DHT22;13001;51.968;5.918;2023-02-22T17:23:12;11.80;99.90
22769;DHT22;13001;51.968;5.918;2023-02-22T17:25:42;11.70;99.90
22769;DHT22;13001;51.968;5.918;2023-02-22T17:28:10;11.70;99.90
22769;DHT22;13001;51.968;5.918;2023-02-22T17:30:38;11.70;99.90
22769;DHT22;13001;51.968;5.918;2023-02-22T17:33:07;11.60;99.90
22769;DHT22;13001;51.968;5.918;2023-02-22T17:35:37;11.60;99.90
22769;DHT22;13001;51.968;5.918;2023-02-22T17:38:06;11.60;99.90
22769;DHT22;13001;51.968;5.918;2023-02-22T17:40:35;11.60;99.90
22769;DHT22;13001;51.968;5.918;2023-02-22T17:43:05;11.60;99.90
22769;DHT22;13001;51.968;5.918;2023-02-22T17:45:38;11.50;99.90
22769;DHT22;13001;51.968;5.918;2023-02-22T17:48:07;11.50;99.90
22769;DHT22;13001;51.968;5.918;2023-02-22T17:50:39;11.50;99.90
22769;DHT22;13001;51.968;5.918;2023-02-22T17:53:07;11.50;99.90
22769;DHT22;13001;51.968;5.918;2023-02-22T17:55:42;11.50;99.90
22769;DHT22;13001;51.968;5.918;2023-02-22T17:58:11;11.50;99.90
22769;DHT22;13001;51.968;5.918;2023-02-22T18:00:44;11.50;99.90
22769;DHT22;13001;51.968;5.918;2023-02-22T18:03:17;11.40;99.90
22769;DHT22;13001;51.968;5.918;2023-02-22T18:05:48;11.40;99.90
22769;DHT22;13001;51.968;5.918;2023-02-22T18:08:17;11.40;99.90
22769;DHT22;13001;51.968;5.918;2023-02-22T18:10:45;11.40;99.90
22769;DHT22;13001;51.968;5.918;2023-02-22T18:13:15;11.40;99.90
22769;DHT22;13001;51.968;5.918;2023-02-22T18:15:45;11.50;99.90
22769;DHT22;13001;51.968;5.918;2023-02-22T18:18:13;11.50;99.90